sensor_id;sensor_type;location;lat;lon;timestamp;pressure;altitude;pressure_sealevel;temperature;humidity
54936;BME280;40838;50.676;7.838;2023-05-08T00:01:07;98702.06;;;8.27;100.00
54936;BME280;40838;50.676;7.838;2023-05-08T00:03:33;98700.13;;;8.50;100.00
54936;BME280;40838;50.676;7.838;2023-05-08T00:06:02;98694.50;;;8.46;100.00
54936;BME280;40838;50.676;7.838;2023-05-08T00:08:29;98705.13;;;8.14;100.00
54936;BME280;40838;50.676;7.838;2023-05-08T00:10:56;98703.81;;;8.17;100.00
54936;BME280;40838;50.676;7.838;2023-05-08T00:13:23;98705.88;;;8.37;100.00
54936;BME280;40838;50.676;7.838;2023-05-08T00:15:51;98706.38;;;8.39;100.00
54936;BME280;40838;50.676;7.838;2023-05-08T00:18:17;98717.22;;;8.32;100.00
54936;BME280;40838;50.676;7.838;2023-05-08T00:20:44;98709.75;;;7.97;100.00
54936;BME280;40838;50.676;7.838;2023-05-08T00:23:11;98704.00;;;8.05;100.00
54936;BME280;40838;50.676;7.838;2023-05-08T00:25:38;98710.38;;;8.09;100.00
54936;BME280;40838;50.676;7.838;2023-05-08T00:28:05;98707.53;;;8.16;100.00
54936;BME280;40838;50.676;7.838;2023-05-08T00:30:32;98707.00;;;7.87;100.00
54936;BME280;40838;50.676;7.838;2023-05-08T00:32:59;98706.88;;;8.03;100.00
54936;BME280;40838;50.676;7.838;2023-05-08T00:35:26;98707.44;;;7.78;100.00
54936;BME280;40838;50.676;7.838;2023-05-08T00:37:52;98711.47;;;7.86;100.00
54936;BME280;40838;50.676;7.838;2023-05-08T00:40:19;98703.44;;;7.76;100.00
54936;BME280;40838;50.676;7.838;2023-05-08T00:42:46;98711.38;;;7.76;100.00
54936;BME280;40838;50.676;7.838;2023-05-08T00:45:12;98707.22;;;7.58;100.00
54936;BME280;40838;50.676;7.838;2023-05-08T00:47:39;98711.47;;;7.59;100.00
54936;BME280;40838;50.676;7.838;2023-05-08T00:50:08;98708.94;;;7.69;100.00
54936;BME280;40838;50.676;7.838;2023-05-08T00:52:41;98709.28;;;7.78;100.00
54936;BME280;40838;50.676;7.838;2023-05-08T00:55:07;98718.00;;;7.51;100.00
54936;BME280;40838;50.676;7.838;2023-05-08T00:57:34;98709.44;;;7.66;100.00
54936;BME280;40838;50.676;7.838;2023-05-08T01:00:02;98714.59;;;7.78;100.00
54936;BME280;40838;50.676;7.838;2023-05-08T01:02:29;98721.44;;;7.74;100.00
54936;BME280;40838;50.676;7.838;2023-05-08T01:04:57;98719.34;;;7.76;100.00
54936;BME280;40838;50.676;7.838;2023-05-08T01:07:25;98718.13;;;7.61;100.00
54936;BME280;40838;50.676;7.838;2023-05-08T01:09:52;98717.63;;;7.65;100.00
54936;BME280;40838;50.676;7.838;2023-05-08T01:12:20;98724.25;;;7.89;100.00
54936;BME280;40838;50.676;7.838;2023-05-08T01:14:51;98720.06;;;7.71;100.00
54936;BME280;40838;50.676;7.838;2023-05-08T01:17:22;98718.47;;;7.70;100.00
54936;BME280;40838;50.676;7.838;2023-05-08T01:20:03;98722.56;;;7.56;100.00
54936;BME280;40838;50.676;7.838;2023-05-08T01:25:27;98730.22;;;7.52;100.00
54936;BME280;40838;50.676;7.838;2023-05-08T01:28:06;98724.53;;;7.44;100.00
54936;BME280;40838;50.676;7.838;2023-05-08T01:33:24;98721.50;;;7.79;100.00
54936;BME280;40838;50.676;7.838;2023-05-08T01:35:54;98721.56;;;7.84;100.00
54936;BME280;40838;50.676;7.838;2023-05-08T01:38:25;98725.56;;;7.87;100.00
54936;BME280;40838;50.676;7.838;2023-05-08T01:40:53;98722.72;;;7.93;100.00
54936;BME280;40838;50.676;7.838;2023-05-08T01:43:24;98730.50;;;7.78;100.00
54936;BME280;40838;50.676;7.838;2023-05-08T01:45:51;98727.34;;;7.81;100.00
54936;BME280;40838;50.676;7.838;2023-05-08T01:48:21;98725.41;;;7.49;100.00
54936;BME280;40838;50.676;7.838;2023-05-08T01:50:52;98726.09;;;7.89;100.00
54936;BME280;40838;50.676;7.838;2023-05-08T01:53:22;98719.34;;;7.54;100.00
54936;BME280;40838;50.676;7.838;2023-05-08T01:55:49;98729.78;;;7.60;100.00
54936;BME280;40838;50.676;7.838;2023-05-08T01:58:18;98720.84;;;7.67;100.00
54936;BME280;40838;50.676;7.838;2023-05-08T02:00:45;98727.53;;;7.74;100.00
54936;BME280;40838;50.676;7.838;2023-05-08T02:03:12;98733.81;;;7.68;100.00
54936;BME280;40838;50.676;7.838;2023-05-08T02:05:40;98732.53;;;7.71;100.00
54936;BME280;40838;50.676;7.838;2023-05-08T02:08:10;98731.56;;;7.55;100.00
54936;BME280;40838;50.676;7.838;2023-05-08T02:10:38;98734.75;;;7.79;100.00
54936;BME280;40838;50.676;7.838;2023-05-08T02:13:06;98736.81;;;7.72;100.00
54936;BME280;40838;50.676;7.838;2023-05-08T02:15:34;98738.75;;;7.81;100.00
54936;BME280;40838;50.676;7.838;2023-05-08T02:18:06;98740.25;;;7.72;100.00
54936;BME280;40838;50.676;7.838;2023-05-08T02:20:33;98737.53;;;7.67;100.00
54936;BME280;40838;50.676;7.838;2023-05-08T02:23:00;98741.06;;;7.73;100.00
54936;BME280;40838;50.676;7.838;2023-05-08T02:25:35;98742.53;;;7.64;100.00
54936;BME280;40838;50.676;7.838;2023-05-08T02:28:02;98743.28;;;7.81;100.00
54936;BME280;40838;50.676;7.838;2023-05-08T02:30:31;98747.72;;;7.75;100.00
54936;BME280;40838;50.676;7.838;2023-05-08T02:32:58;98740.34;;;7.82;100.00
54936;BME280;40838;50.676;7.838;2023-05-08T02:35:27;98745.78;;;7.93;100.00
54936;BME280;40838;50.676;7.838;2023-05-08T02:37:56;98751.69;;;8.00;100.00
54936;BME280;40838;50.676;7.838;2023-05-08T02:40:24;98748.53;;;8.03;100.00
54936;BME280;40838;50.676;7.838;2023-05-08T02:42:53;98751.09;;;7.93;100.00
54936;BME280;40838;50.676;7.838;2023-05-08T02:45:20;98747.41;;;7.72;100.00
54936;BME280;40838;50.676;7.838;2023-05-08T02:47:50;98743.38;;;7.91;100.00
54936;BME280;40838;50.676;7.838;2023-05-08T02:50:21;98751.63;;;7.95;100.00
54936;BME280;40838;50.676;7.838;2023-05-08T02:52:50;98744.72;;;7.94;100.00
54936;BME280;40838;50.676;7.838;2023-05-08T02:55:21;98750.38;;;7.75;100.00
54936;BME280;40838;50.676;7.838;2023-05-08T02:57:52;98750.63;;;7.52;100.00
54936;BME280;40838;50.676;7.838;2023-05-08T03:00:26;98752.03;;;7.37;100.00
54936;BME280;40838;50.676;7.838;2023-05-08T03:02:55;98746.16;;;7.79;100.00
54936;BME280;40838;50.676;7.838;2023-05-08T03:05:24;98747.78;;;7.58;100.00
54936;BME280;40838;50.676;7.838;2023-05-08T03:07:53;98751.59;;;7.68;100.00
54936;BME280;40838;50.676;7.838;2023-05-08T03:10:23;98749.25;;;7.71;100.00
54936;BME280;40838;50.676;7.838;2023-05-08T03:12:50;98747.34;;;7.45;100.00
54936;BME280;40838;50.676;7.838;2023-05-08T03:15:20;98744.88;;;7.60;100.00
54936;BME280;40838;50.676;7.838;2023-05-08T03:17:52;98748.41;;;7.44;100.00
54936;BME280;40838;50.676;7.838;2023-05-08T03:20:20;98751.84;;;7.44;100.00
54936;BME280;40838;50.676;7.838;2023-05-08T03:22:49;98756.59;;;7.64;100.00
54936;BME280;40838;50.676;7.838;2023-05-08T03:25:16;98759.50;;;7.41;100.00
54936;BME280;40838;50.676;7.838;2023-05-08T03:27:47;98757.56;;;7.19;100.00
54936;BME280;40838;50.676;7.838;2023-05-08T03:30:15;98758.22;;;7.26;100.00
54936;BME280;40838;50.676;7.838;2023-05-08T03:32:51;98760.16;;;7.53;100.00
54936;BME280;40838;50.676;7.838;2023-05-08T03:35:18;98753.81;;;7.54;100.00
54936;BME280;40838;50.676;7.838;2023-05-08T03:37:45;98755.84;;;7.08;100.00
54936;BME280;40838;50.676;7.838;2023-05-08T03:40:12;98754.00;;;7.25;100.00
54936;BME280;40838;50.676;7.838;2023-05-08T03:42:40;98760.22;;;7.36;100.00
54936;BME280;40838;50.676;7.838;2023-05-08T03:45:07;98752.59;;;7.23;100.00
54936;BME280;40838;50.676;7.838;2023-05-08T03:47:35;98760.47;;;7.34;100.00
54936;BME280;40838;50.676;7.838;2023-05-08T03:50:03;98763.44;;;7.21;100.00
54936;BME280;40838;50.676;7.838;2023-05-08T03:52:31;98758.50;;;7.08;100.00
54936;BME280;40838;50.676;7.838;2023-05-08T03:54:57;98755.59;;;7.26;100.00
54936;BME280;40838;50.676;7.838;2023-05-08T03:57:26;98753.41;;;7.06;100.00
54936;BME280;40838;50.676;7.838;2023-05-08T03:59:58;98760.63;;;7.28;100.00
54936;BME280;40838;50.676;7.838;2023-05-08T04:02:27;98759.00;;;7.44;100.00
54936;BME280;40838;50.676;7.838;2023-05-08T04:04:58;98761.38;;;7.45;100.00
54936;BME280;40838;50.676;7.838;2023-05-08T04:07:30;98763.28;;;7.28;100.00
54936;BME280;40838;50.676;7.838;2023-05-08T04:10:05;98767.31;;;7.13;100.00
54936;BME280;40838;50.676;7.838;2023-05-08T04:12:35;98767.94;;;7.04;100.00
54936;BME280;40838;50.676;7.838;2023-05-08T04:15:03;98775.97;;;7.43;100.00
54936;BME280;40838;50.676;7.838;2023-05-08T04:17:33;98768.91;;;7.14;100.00
54936;BME280;40838;50.676;7.838;2023-05-08T04:20:02;98772.31;;;7.49;100.00
54936;BME280;40838;50.676;7.838;2023-05-08T04:22:32;98773.03;;;7.44;100.00
54936;BME280;40838;50.676;7.838;2023-05-08T04:25:00;98774.22;;;7.31;100.00
54936;BME280;40838;50.676;7.838;2023-05-08T04:27:28;98775.97;;;7.43;100.00
54936;BME280;40838;50.676;7.838;2023-05-08T04:29:55;98775.78;;;7.15;100.00
54936;BME280;40838;50.676;7.838;2023-05-08T04:32:22;98779.25;;;7.16;100.00
54936;BME280;40838;50.676;7.838;2023-05-08T04:34:49;98779.25;;;7.33;100.00
54936;BME280;40838;50.676;7.838;2023-05-08T04:37:21;98775.56;;;7.17;100.00
54936;BME280;40838;50.676;7.838;2023-05-08T04:39:50;98784.31;;;7.18;100.00
54936;BME280;40838;50.676;7.838;2023-05-08T04:42:17;98783.56;;;7.39;100.00
54936;BME280;40838;50.676;7.838;2023-05-08T04:44:44;98776.97;;;7.42;100.00
54936;BME280;40838;50.676;7.838;2023-05-08T04:47:11;98781.31;;;7.48;100.00
54936;BME280;40838;50.676;7.838;2023-05-08T04:49:38;98778.03;;;7.63;100.00
54936;BME280;40838;50.676;7.838;2023-05-08T04:52:05;98781.25;;;7.43;100.00
54936;BME280;40838;50.676;7.838;2023-05-08T04:54:32;98784.03;;;7.53;100.00
54936;BME280;40838;50.676;7.838;2023-05-08T04:57:00;98786.88;;;7.68;100.00
54936;BME280;40838;50.676;7.838;2023-05-08T04:59:27;98781.19;;;7.81;100.00
54936;BME280;40838;50.676;7.838;2023-05-08T05:01:56;98793.09;;;7.79;100.00
54936;BME280;40838;50.676;7.838;2023-05-08T05:04:25;98794.31;;;7.71;100.00
54936;BME280;40838;50.676;7.838;2023-05-08T05:06:54;98787.06;;;7.83;100.00
54936;BME280;40838;50.676;7.838;2023-05-08T05:09:20;98797.03;;;7.76;100.00
54936;BME280;40838;50.676;7.838;2023-05-08T05:11:47;98795.28;;;8.09;100.00
54936;BME280;40838;50.676;7.838;2023-05-08T05:14:16;98789.69;;;8.05;100.00
54936;BME280;40838;50.676;7.838;2023-05-08T05:16:43;98802.22;;;8.10;100.00
54936;BME280;40838;50.676;7.838;2023-05-08T05:19:09;98799.38;;;7.95;100.00
54936;BME280;40838;50.676;7.838;2023-05-08T05:21:37;98802.84;;;7.95;100.00
54936;BME280;40838;50.676;7.838;2023-05-08T05:24:04;98808.41;;;8.21;100.00
54936;BME280;40838;50.676;7.838;2023-05-08T05:26:31;98803.53;;;8.35;100.00
54936;BME280;40838;50.676;7.838;2023-05-08T05:28:57;98808.34;;;8.38;100.00
54936;BME280;40838;50.676;7.838;2023-05-08T05:31:26;98806.03;;;8.19;100.00
54936;BME280;40838;50.676;7.838;2023-05-08T05:33:53;98803.22;;;8.04;100.00
54936;BME280;40838;50.676;7.838;2023-05-08T05:36:19;98810.41;;;8.36;100.00
54936;BME280;40838;50.676;7.838;2023-05-08T05:38:46;98813.59;;;8.33;100.00
54936;BME280;40838;50.676;7.838;2023-05-08T05:41:13;98808.69;;;8.19;100.00
54936;BME280;40838;50.676;7.838;2023-05-08T05:43:40;98817.00;;;8.82;100.00
54936;BME280;40838;50.676;7.838;2023-05-08T05:46:07;98818.72;;;8.39;100.00
54936;BME280;40838;50.676;7.838;2023-05-08T05:48:35;98822.38;;;7.89;100.00
54936;BME280;40838;50.676;7.838;2023-05-08T05:51:03;98818.94;;;7.89;100.00
54936;BME280;40838;50.676;7.838;2023-05-08T05:53:30;98827.13;;;6.76;100.00
54936;BME280;40838;50.676;7.838;2023-05-08T05:55:57;98830.59;;;6.47;100.00
54936;BME280;40838;50.676;7.838;2023-05-08T05:58:23;98824.78;;;6.34;100.00
54936;BME280;40838;50.676;7.838;2023-05-08T06:00:51;98828.00;;;6.36;100.00
54936;BME280;40838;50.676;7.838;2023-05-08T06:03:18;98826.28;;;6.58;100.00
54936;BME280;40838;50.676;7.838;2023-05-08T06:05:46;98820.75;;;6.60;100.00
54936;BME280;40838;50.676;7.838;2023-05-08T06:08:13;98824.06;;;6.67;100.00
54936;BME280;40838;50.676;7.838;2023-05-08T06:10:40;98827.25;;;6.69;100.00
54936;BME280;40838;50.676;7.838;2023-05-08T06:13:07;98824.25;;;6.48;100.00
54936;BME280;40838;50.676;7.838;2023-05-08T06:15:34;98820.31;;;6.51;100.00
54936;BME280;40838;50.676;7.838;2023-05-08T06:18:02;98822.13;;;6.62;100.00
54936;BME280;40838;50.676;7.838;2023-05-08T06:20:28;98819.78;;;6.66;100.00
54936;BME280;40838;50.676;7.838;2023-05-08T06:22:56;98821.13;;;6.52;100.00
54936;BME280;40838;50.676;7.838;2023-05-08T06:25:23;98819.25;;;6.64;100.00
54936;BME280;40838;50.676;7.838;2023-05-08T06:27:54;98820.38;;;6.39;100.00
54936;BME280;40838;50.676;7.838;2023-05-08T06:30:20;98822.78;;;6.69;100.00
54936;BME280;40838;50.676;7.838;2023-05-08T06:32:47;98821.00;;;6.58;100.00
54936;BME280;40838;50.676;7.838;2023-05-08T06:35:13;98823.72;;;6.80;100.00
54936;BME280;40838;50.676;7.838;2023-05-08T06:37:42;98817.63;;;6.63;100.00
54936;BME280;40838;50.676;7.838;2023-05-08T06:40:11;98819.63;;;6.89;100.00
54936;BME280;40838;50.676;7.838;2023-05-08T06:42:38;98816.94;;;6.84;100.00
54936;BME280;40838;50.676;7.838;2023-05-08T06:45:05;98820.59;;;6.83;100.00
54936;BME280;40838;50.676;7.838;2023-05-08T06:47:32;98821.97;;;6.86;100.00
54936;BME280;40838;50.676;7.838;2023-05-08T06:49:59;98823.34;;;6.88;100.00
54936;BME280;40838;50.676;7.838;2023-05-08T06:52:25;98822.78;;;7.03;100.00
54936;BME280;40838;50.676;7.838;2023-05-08T06:54:53;98826.97;;;6.99;100.00
54936;BME280;40838;50.676;7.838;2023-05-08T06:57:21;98827.69;;;7.11;100.00
54936;BME280;40838;50.676;7.838;2023-05-08T06:59:51;98821.50;;;7.06;100.00
54936;BME280;40838;50.676;7.838;2023-05-08T07:02:17;98825.91;;;6.83;100.00
54936;BME280;40838;50.676;7.838;2023-05-08T07:04:44;98832.41;;;6.76;100.00
54936;BME280;40838;50.676;7.838;2023-05-08T07:07:10;98822.63;;;6.76;100.00
54936;BME280;40838;50.676;7.838;2023-05-08T07:09:38;98830.97;;;7.02;100.00
54936;BME280;40838;50.676;7.838;2023-05-08T07:12:05;98825.34;;;7.15;100.00
54936;BME280;40838;50.676;7.838;2023-05-08T07:14:34;98821.91;;;6.98;100.00
54936;BME280;40838;50.676;7.838;2023-05-08T07:17:01;98819.00;;;7.16;100.00
54936;BME280;40838;50.676;7.838;2023-05-08T07:19:31;98826.94;;;7.16;100.00
54936;BME280;40838;50.676;7.838;2023-05-08T07:21:57;98827.44;;;7.30;100.00
54936;BME280;40838;50.676;7.838;2023-05-08T07:24:24;98828.06;;;7.20;100.00
54936;BME280;40838;50.676;7.838;2023-05-08T07:26:53;98828.97;;;7.09;100.00
54936;BME280;40838;50.676;7.838;2023-05-08T07:29:19;98825.53;;;7.25;100.00
54936;BME280;40838;50.676;7.838;2023-05-08T07:31:47;98828.97;;;7.43;100.00
54936;BME280;40838;50.676;7.838;2023-05-08T07:34:16;98836.09;;;7.42;100.00
54936;BME280;40838;50.676;7.838;2023-05-08T07:36:42;98838.59;;;7.71;100.00
54936;BME280;40838;50.676;7.838;2023-05-08T07:39:09;98832.75;;;7.30;100.00
54936;BME280;40838;50.676;7.838;2023-05-08T07:41:36;98835.13;;;7.48;100.00
54936;BME280;40838;50.676;7.838;2023-05-08T07:44:05;98836.03;;;7.37;100.00
54936;BME280;40838;50.676;7.838;2023-05-08T07:46:31;98834.97;;;7.77;100.00
54936;BME280;40838;50.676;7.838;2023-05-08T07:48:59;98841.03;;;7.94;100.00
54936;BME280;40838;50.676;7.838;2023-05-08T07:51:26;98851.28;;;8.07;100.00
54936;BME280;40838;50.676;7.838;2023-05-08T07:53:53;98852.88;;;8.09;100.00
54936;BME280;40838;50.676;7.838;2023-05-08T07:56:19;98860.16;;;7.96;100.00
54936;BME280;40838;50.676;7.838;2023-05-08T07:58:47;98865.13;;;7.71;100.00
54936;BME280;40838;50.676;7.838;2023-05-08T08:01:13;98862.88;;;7.63;100.00
54936;BME280;40838;50.676;7.838;2023-05-08T08:03:42;98864.59;;;7.18;100.00
54936;BME280;40838;50.676;7.838;2023-05-08T08:06:10;98863.09;;;7.39;100.00
54936;BME280;40838;50.676;7.838;2023-05-08T08:08:38;98858.97;;;7.48;100.00
54936;BME280;40838;50.676;7.838;2023-05-08T08:11:05;98854.53;;;7.54;100.00
54936;BME280;40838;50.676;7.838;2023-05-08T08:13:32;98860.97;;;7.24;100.00
54936;BME280;40838;50.676;7.838;2023-05-08T08:15:58;98860.66;;;7.04;100.00
54936;BME280;40838;50.676;7.838;2023-05-08T08:18:25;98868.53;;;7.15;100.00
54936;BME280;40838;50.676;7.838;2023-05-08T08:20:51;98865.16;;;7.54;100.00
54936;BME280;40838;50.676;7.838;2023-05-08T08:23:19;98871.47;;;7.31;100.00
54936;BME280;40838;50.676;7.838;2023-05-08T08:25:46;98870.94;;;7.00;100.00
54936;BME280;40838;50.676;7.838;2023-05-08T08:28:12;98873.38;;;7.35;100.00
54936;BME280;40838;50.676;7.838;2023-05-08T08:30:39;98869.19;;;7.39;100.00
54936;BME280;40838;50.676;7.838;2023-05-08T08:33:05;98865.97;;;7.54;100.00
54936;BME280;40838;50.676;7.838;2023-05-08T08:35:32;98870.97;;;7.34;100.00
54936;BME280;40838;50.676;7.838;2023-05-08T08:37:58;98874.97;;;7.36;100.00
54936;BME280;40838;50.676;7.838;2023-05-08T08:40:28;98871.69;;;7.46;100.00
54936;BME280;40838;50.676;7.838;2023-05-08T08:42:54;98875.19;;;7.91;100.00
54936;BME280;40838;50.676;7.838;2023-05-08T08:45:23;98872.44;;;8.02;100.00
54936;BME280;40838;50.676;7.838;2023-05-08T08:47:51;98867.91;;;8.03;100.00
54936;BME280;40838;50.676;7.838;2023-05-08T08:50:18;98863.91;;;7.78;100.00
54936;BME280;40838;50.676;7.838;2023-05-08T08:52:46;98871.13;;;8.05;100.00
54936;BME280;40838;50.676;7.838;2023-05-08T08:55:14;98865.28;;;8.03;100.00
54936;BME280;40838;50.676;7.838;2023-05-08T08:57:44;98869.59;;;7.87;100.00
54936;BME280;40838;50.676;7.838;2023-05-08T09:00:14;98862.38;;;7.82;100.00
54936;BME280;40838;50.676;7.838;2023-05-08T09:02:41;98871.88;;;8.22;100.00
54936;BME280;40838;50.676;7.838;2023-05-08T09:05:08;98867.22;;;8.35;100.00
54936;BME280;40838;50.676;7.838;2023-05-08T09:07:34;98855.47;;;8.25;100.00
54936;BME280;40838;50.676;7.838;2023-05-08T09:10:03;98866.78;;;8.43;100.00
54936;BME280;40838;50.676;7.838;2023-05-08T09:12:31;98872.72;;;8.06;100.00
54936;BME280;40838;50.676;7.838;2023-05-08T09:14:59;98872.91;;;8.21;100.00
54936;BME280;40838;50.676;7.838;2023-05-08T09:17:27;98865.69;;;7.95;100.00
54936;BME280;40838;50.676;7.838;2023-05-08T09:19:54;98867.16;;;7.86;100.00
54936;BME280;40838;50.676;7.838;2023-05-08T09:22:21;98874.84;;;8.26;100.00
54936;BME280;40838;50.676;7.838;2023-05-08T09:24:55;98869.78;;;8.02;100.00
54936;BME280;40838;50.676;7.838;2023-05-08T09:27:22;98866.81;;;7.99;100.00
54936;BME280;40838;50.676;7.838;2023-05-08T09:30:00;98870.69;;;7.69;100.00
54936;BME280;40838;50.676;7.838;2023-05-08T09:32:27;98863.06;;;8.44;100.00
54936;BME280;40838;50.676;7.838;2023-05-08T09:34:54;98868.09;;;8.18;100.00
54936;BME280;40838;50.676;7.838;2023-05-08T09:37:21;98864.28;;;8.09;100.00
54936;BME280;40838;50.676;7.838;2023-05-08T09:39:47;98862.06;;;8.01;100.00
54936;BME280;40838;50.676;7.838;2023-05-08T09:42:14;98876.00;;;8.35;100.00
54936;BME280;40838;50.676;7.838;2023-05-08T09:44:42;98871.91;;;8.49;100.00
54936;BME280;40838;50.676;7.838;2023-05-08T09:47:10;98875.56;;;8.21;100.00
54936;BME280;40838;50.676;7.838;2023-05-08T09:49:37;98874.69;;;8.87;100.00
54936;BME280;40838;50.676;7.838;2023-05-08T09:52:05;98878.44;;;8.91;100.00
54936;BME280;40838;50.676;7.838;2023-05-08T09:54:32;98874.47;;;8.93;100.00
54936;BME280;40838;50.676;7.838;2023-05-08T09:56:58;98878.44;;;8.91;100.00
54936;BME280;40838;50.676;7.838;2023-05-08T09:59:25;98882.44;;;8.39;100.00
54936;BME280;40838;50.676;7.838;2023-05-08T10:01:53;98879.22;;;8.91;100.00
54936;BME280;40838;50.676;7.838;2023-05-08T10:04:34;98876.50;;;9.13;100.00
54936;BME280;40838;50.676;7.838;2023-05-08T10:07:01;98877.72;;;9.01;100.00
54936;BME280;40838;50.676;7.838;2023-05-08T10:09:28;98882.38;;;9.20;100.00
54936;BME280;40838;50.676;7.838;2023-05-08T10:11:54;98867.72;;;8.54;100.00
54936;BME280;40838;50.676;7.838;2023-05-08T10:14:21;98871.53;;;8.63;100.00
54936;BME280;40838;50.676;7.838;2023-05-08T10:16:49;98875.19;;;8.84;100.00
54936;BME280;40838;50.676;7.838;2023-05-08T10:19:17;98872.94;;;8.70;100.00
54936;BME280;40838;50.676;7.838;2023-05-08T10:21:46;98876.53;;;8.86;100.00
54936;BME280;40838;50.676;7.838;2023-05-08T10:24:14;98880.81;;;9.19;100.00
54936;BME280;40838;50.676;7.838;2023-05-08T10:26:42;98881.31;;;9.59;100.00
54936;BME280;40838;50.676;7.838;2023-05-08T10:29:10;98878.50;;;9.33;100.00
54936;BME280;40838;50.676;7.838;2023-05-08T10:31:39;98880.34;;;9.28;100.00
54936;BME280;40838;50.676;7.838;2023-05-08T10:34:08;98874.75;;;8.97;100.00
54936;BME280;40838;50.676;7.838;2023-05-08T10:36:38;98870.53;;;9.71;100.00
54936;BME280;40838;50.676;7.838;2023-05-08T10:39:07;98875.66;;;10.61;100.00
54936;BME280;40838;50.676;7.838;2023-05-08T10:41:35;98867.91;;;9.81;100.00
54936;BME280;40838;50.676;7.838;2023-05-08T10:44:02;98869.09;;;10.00;100.00
54936;BME280;40838;50.676;7.838;2023-05-08T10:46:29;98867.66;;;9.77;100.00
54936;BME280;40838;50.676;7.838;2023-05-08T10:48:59;98870.91;;;9.95;100.00
54936;BME280;40838;50.676;7.838;2023-05-08T10:51:33;98869.03;;;9.90;100.00
54936;BME280;40838;50.676;7.838;2023-05-08T10:54:02;98868.03;;;9.59;100.00
54936;BME280;40838;50.676;7.838;2023-05-08T10:56:32;98868.72;;;9.39;100.00
54936;BME280;40838;50.676;7.838;2023-05-08T10:58:58;98868.69;;;9.34;100.00
54936;BME280;40838;50.676;7.838;2023-05-08T11:01:26;98870.63;;;9.91;100.00
54936;BME280;40838;50.676;7.838;2023-05-08T11:03:53;98860.69;;;9.71;100.00
54936;BME280;40838;50.676;7.838;2023-05-08T11:09:01;98869.81;;;8.79;100.00
54936;BME280;40838;50.676;7.838;2023-05-08T11:11:29;98872.94;;;8.98;100.00
54936;BME280;40838;50.676;7.838;2023-05-08T11:14:08;98867.75;;;8.86;100.00
54936;BME280;40838;50.676;7.838;2023-05-08T11:19:21;98865.13;;;9.60;100.00
54936;BME280;40838;50.676;7.838;2023-05-08T11:24:33;98869.25;;;9.41;100.00
54936;BME280;40838;50.676;7.838;2023-05-08T11:27:01;98860.28;;;9.15;100.00
54936;BME280;40838;50.676;7.838;2023-05-08T11:29:29;98866.22;;;8.90;100.00
54936;BME280;40838;50.676;7.838;2023-05-08T11:31:55;98861.94;;;9.21;100.00
54936;BME280;40838;50.676;7.838;2023-05-08T11:37:07;98856.72;;;9.36;100.00
54936;BME280;40838;50.676;7.838;2023-05-08T11:39:34;98851.09;;;9.70;100.00
54936;BME280;40838;50.676;7.838;2023-05-08T11:44:58;98850.22;;;9.17;100.00
54936;BME280;40838;50.676;7.838;2023-05-08T11:47:29;98846.19;;;9.52;100.00
54936;BME280;40838;50.676;7.838;2023-05-08T11:49:57;98850.16;;;8.80;100.00
54936;BME280;40838;50.676;7.838;2023-05-08T11:52:24;98846.13;;;9.41;100.00
54936;BME280;40838;50.676;7.838;2023-05-08T11:54:51;98851.59;;;9.25;100.00
54936;BME280;40838;50.676;7.838;2023-05-08T11:57:19;98853.56;;;9.02;100.00
54936;BME280;40838;50.676;7.838;2023-05-08T11:59:48;98855.59;;;8.90;100.00
54936;BME280;40838;50.676;7.838;2023-05-08T12:02:16;98852.81;;;9.12;100.00
54936;BME280;40838;50.676;7.838;2023-05-08T12:04:43;98854.91;;;9.05;100.00
54936;BME280;40838;50.676;7.838;2023-05-08T12:07:10;98854.34;;;9.03;100.00
54936;BME280;40838;50.676;7.838;2023-05-08T12:09:37;98848.91;;;9.19;100.00
54936;BME280;40838;50.676;7.838;2023-05-08T12:12:04;98854.19;;;9.57;100.00
54936;BME280;40838;50.676;7.838;2023-05-08T12:14:30;98846.13;;;9.84;100.00
54936;BME280;40838;50.676;7.838;2023-05-08T12:17:00;98847.38;;;9.29;100.00
54936;BME280;40838;50.676;7.838;2023-05-08T12:19:28;98837.97;;;10.06;100.00
54936;BME280;40838;50.676;7.838;2023-05-08T12:21:55;98842.50;;;10.10;100.00
54936;BME280;40838;50.676;7.838;2023-05-08T12:24:22;98841.44;;;10.06;100.00
54936;BME280;40838;50.676;7.838;2023-05-08T12:26:52;98844.16;;;10.27;100.00
54936;BME280;40838;50.676;7.838;2023-05-08T12:29:19;98837.78;;;10.38;100.00
54936;BME280;40838;50.676;7.838;2023-05-08T12:31:46;98833.00;;;10.35;100.00
54936;BME280;40838;50.676;7.838;2023-05-08T12:34:13;98837.50;;;10.24;100.00
54936;BME280;40838;50.676;7.838;2023-05-08T12:36:42;98838.56;;;10.44;100.00
54936;BME280;40838;50.676;7.838;2023-05-08T12:39:09;98831.41;;;10.39;100.00
54936;BME280;40838;50.676;7.838;2023-05-08T12:41:40;98830.09;;;10.62;100.00
54936;BME280;40838;50.676;7.838;2023-05-08T12:44:14;98833.47;;;10.17;100.00
54936;BME280;40838;50.676;7.838;2023-05-08T12:46:44;98826.63;;;10.72;100.00
54936;BME280;40838;50.676;7.838;2023-05-08T12:49:11;98826.41;;;10.78;100.00
54936;BME280;40838;50.676;7.838;2023-05-08T12:51:38;98820.50;;;11.22;100.00
54936;BME280;40838;50.676;7.838;2023-05-08T12:54:06;98827.47;;;10.98;100.00
54936;BME280;40838;50.676;7.838;2023-05-08T12:56:33;98819.75;;;10.81;100.00
54936;BME280;40838;50.676;7.838;2023-05-08T12:58:59;98819.22;;;10.94;100.00
54936;BME280;40838;50.676;7.838;2023-05-08T13:01:26;98812.81;;;10.80;100.00
54936;BME280;40838;50.676;7.838;2023-05-08T13:03:53;98806.41;;;11.02;100.00
54936;BME280;40838;50.676;7.838;2023-05-08T13:06:20;98808.75;;;11.34;100.00
54936;BME280;40838;50.676;7.838;2023-05-08T13:08:51;98800.53;;;11.20;100.00
54936;BME280;40838;50.676;7.838;2023-05-08T13:11:28;98802.69;;;10.87;100.00
54936;BME280;40838;50.676;7.838;2023-05-08T13:13:55;98803.47;;;10.98;100.00
54936;BME280;40838;50.676;7.838;2023-05-08T13:16:22;98795.97;;;11.31;100.00
54936;BME280;40838;50.676;7.838;2023-05-08T13:18:49;98801.63;;;11.09;100.00
54936;BME280;40838;50.676;7.838;2023-05-08T13:21:16;98811.72;;;11.22;100.00
54936;BME280;40838;50.676;7.838;2023-05-08T13:23:42;98807.22;;;11.12;100.00